createdAt,value
2018-12-01T00:00:35.220Z,71.82
2018-12-01T00:03:03.428Z,72.96
2018-12-01T00:05:31.653Z,73.24
2018-12-01T00:07:59.826Z,72.75
2018-12-01T00:10:28.027Z,72.89
2018-12-01T00:12:56.241Z,72.46
2018-12-01T00:15:25.777Z,72.77
2018-12-01T00:17:54.476Z,72.43
2018-12-01T00:20:24.136Z,72.34
2018-12-01T00:22:52.340Z,72.25
2018-12-01T00:25:20.561Z,72.30
2018-12-01T00:27:48.798Z,72.49
2018-12-01T00:30:17.835Z,72.71
2018-12-01T00:32:47.024Z,72.76
2018-12-01T00:35:15.224Z,72.96
2018-12-01T00:37:43.417Z,73.17
2018-12-01T00:40:13.727Z,73.00
2018-12-01T00:42:41.938Z,72.70
2018-12-01T00:45:11.424Z,73.13
2018-12-01T00:47:39.616Z,73.18
2018-12-01T00:50:11.364Z,73.58
2018-12-01T00:52:39.544Z,73.65
2018-12-01T00:55:10.278Z,73.58
2018-12-01T00:57:38.449Z,73.69
2018-12-01T01:00:19.045Z,73.56
2018-12-01T01:02:53.062Z,73.74
2018-12-01T01:05:22.090Z,73.89
2018-12-01T01:07:50.260Z,73.60
2018-12-01T01:10:18.762Z,74.05
2018-12-01T01:12:46.987Z,74.27
2018-12-01T01:15:15.186Z,74.13
2018-12-01T01:17:43.437Z,74.08
2018-12-01T01:20:13.713Z,74.22
2018-12-01T01:22:41.913Z,74.17
2018-12-01T01:25:11.193Z,74.31
2018-12-01T01:27:39.412Z,74.38
2018-12-01T01:30:10.523Z,74.27
2018-12-01T01:32:38.770Z,74.06
2018-12-01T01:35:06.989Z,74.31
2018-12-01T01:37:35.187Z,74.15
2018-12-01T01:40:03.403Z,73.52
2018-12-01T01:42:31.577Z,73.59
2018-12-01T01:44:59.776Z,73.76
2018-12-01T01:47:28.449Z,73.55
2018-12-01T01:49:56.672Z,73.70
2018-12-01T01:52:24.850Z,73.85
2018-12-01T01:54:53.053Z,73.84
2018-12-01T01:57:21.268Z,73.77
2018-12-01T01:59:49.455Z,73.46
2018-12-01T02:02:17.660Z,73.42
2018-12-01T02:04:45.866Z,73.53
2018-12-01T02:07:14.066Z,73.61
2018-12-01T02:09:42.276Z,73.24
2018-12-01T02:12:10.461Z,73.22
2018-12-01T02:14:38.675Z,72.82
2018-12-01T02:17:06.862Z,72.77
2018-12-01T02:19:35.024Z,72.70
2018-12-01T02:22:03.398Z,72.51
2018-12-01T02:24:31.581Z,72.25
2018-12-01T02:26:59.756Z,72.01
2018-12-01T02:29:27.919Z,72.30
2018-12-01T02:31:56.107Z,72.13
2018-12-01T02:34:24.301Z,72.24
2018-12-01T02:36:52.483Z,72.16
2018-12-01T02:39:20.742Z,72.29
2018-12-01T02:41:48.857Z,71.76
2018-12-01T02:44:28.338Z,72.03
2018-12-01T02:47:08.602Z,72.23
2018-12-01T02:49:37.049Z,72.06
2018-12-01T02:52:06.470Z,72.48
2018-12-01T02:54:34.932Z,72.75
2018-12-01T02:57:03.118Z,72.74
2018-12-01T02:59:31.497Z,72.69
2018-12-01T03:01:59.698Z,73.03
2018-12-01T03:04:27.888Z,73.25
2018-12-01T03:06:56.110Z,73.30
2018-12-01T03:09:24.324Z,73.55
2018-12-01T03:11:52.558Z,73.90
2018-12-01T03:14:20.898Z,74.08
2018-12-01T03:16:49.157Z,74.78
2018-12-01T03:19:17.494Z,74.78
2018-12-01T03:21:45.719Z,74.65
2018-12-01T03:24:13.896Z,74.92
2018-12-01T03:26:42.085Z,75.45
2018-12-01T03:29:10.959Z,75.47
2018-12-01T03:31:39.305Z,75.32
2018-12-01T03:34:07.499Z,75.41
2018-12-01T03:36:35.724Z,75.36
2018-12-01T03:39:04.261Z,75.17
2018-12-01T03:41:32.466Z,75.02
2018-12-01T03:44:00.758Z,74.95
2018-12-01T03:46:28.962Z,74.94
2018-12-01T03:48:57.265Z,75.01
2018-12-01T03:51:25.476Z,74.85
2018-12-01T03:53:53.687Z,74.81
2018-12-01T03:56:21.866Z,75.05
2018-12-01T03:58:50.029Z,75.19
2018-12-01T04:01:18.213Z,74.98
2018-12-01T04:03:46.385Z,74.88
2018-12-01T04:06:14.803Z,74.75
2018-12-01T04:08:42.980Z,74.92
2018-12-01T04:11:11.192Z,74.86
2018-12-01T04:13:39.388Z,74.88
2018-12-01T04:16:07.705Z,74.85
2018-12-01T04:18:35.979Z,75.02
2018-12-01T04:21:04.193Z,75.11
2018-12-01T04:23:32.373Z,74.76
2018-12-01T04:26:00.617Z,74.72
2018-12-01T04:28:28.827Z,74.73
2018-12-01T04:30:57.020Z,74.81
2018-12-01T04:33:25.262Z,75.02
2018-12-01T04:35:53.503Z,74.95
2018-12-01T04:38:21.707Z,75.12
2018-12-01T04:40:49.937Z,74.65
2018-12-01T04:43:18.135Z,74.79
2018-12-01T04:45:46.346Z,75.28
2018-12-01T04:48:14.641Z,75.46
2018-12-01T04:50:42.808Z,75.69
2018-12-01T04:53:11.022Z,75.80
2018-12-01T04:55:39.197Z,75.78
2018-12-01T04:58:07.665Z,75.93
2018-12-01T05:00:35.872Z,76.29
2018-12-01T05:03:04.086Z,76.22
2018-12-01T05:05:32.273Z,76.14
2018-12-01T05:08:00.446Z,75.91
2018-12-01T05:10:28.819Z,76.52
2018-12-01T05:12:57.037Z,76.57
2018-12-01T05:15:25.227Z,76.89
2018-12-01T05:17:53.425Z,76.99
2018-12-01T05:20:23.508Z,77.07
2018-12-01T05:22:52.452Z,76.72
2018-12-01T05:25:20.665Z,76.75
2018-12-01T05:27:48.839Z,76.69
2018-12-01T05:30:17.079Z,76.61
2018-12-01T05:32:45.288Z,76.76
2018-12-01T05:35:19.573Z,76.79
2018-12-01T05:37:47.794Z,76.82
2018-12-01T05:40:16.008Z,76.94
2018-12-01T05:42:44.195Z,76.83
2018-12-01T05:45:14.644Z,76.56
2018-12-01T05:47:42.807Z,76.79
2018-12-01T05:50:11.723Z,76.98
2018-12-01T05:52:39.960Z,77.13
2018-12-01T05:55:09.452Z,76.96
2018-12-01T05:57:37.669Z,77.19
2018-12-01T06:00:12.989Z,77.29
2018-12-01T06:02:41.222Z,77.33
2018-12-01T06:05:10.260Z,77.55
2018-12-01T06:07:38.561Z,77.70
2018-12-01T06:10:23.241Z,77.21
2018-12-01T06:12:53.209Z,77.53
2018-12-01T06:15:21.889Z,77.53
2018-12-01T06:17:50.058Z,77.30
2018-12-01T06:20:19.569Z,77.37
2018-12-01T06:22:47.777Z,77.67
2018-12-01T06:25:17.471Z,77.51
2018-12-01T06:27:45.683Z,77.50
2018-12-01T06:30:14.962Z,77.77
2018-12-01T06:32:43.417Z,77.68
2018-12-01T06:35:11.624Z,78.00
2018-12-01T06:37:39.841Z,77.82
2018-12-01T06:40:12.453Z,77.82
2018-12-01T06:42:40.837Z,77.96
2018-12-01T06:45:10.128Z,77.96
2018-12-01T06:47:38.353Z,77.98
2018-12-01T06:50:08.739Z,78.22
2018-12-01T06:52:37.106Z,78.14
2018-12-01T06:55:06.109Z,78.20
2018-12-01T06:57:34.325Z,78.25
2018-12-01T07:00:02.523Z,78.17
2018-12-01T07:02:30.729Z,77.75
2018-12-01T07:04:58.952Z,77.91
2018-12-01T07:07:27.269Z,77.78
2018-12-01T07:09:55.593Z,77.52
2018-12-01T07:12:23.788Z,77.51
2018-12-01T07:14:52.001Z,77.57
2018-12-01T07:17:20.190Z,77.22
2018-12-01T07:19:48.414Z,77.11
2018-12-01T07:22:16.629Z,76.86
2018-12-01T07:24:44.802Z,77.03
2018-12-01T07:27:13.145Z,77.01
2018-12-01T07:29:41.385Z,76.67
2018-12-01T07:32:09.669Z,76.61
2018-12-01T07:34:37.905Z,76.58
2018-12-01T07:37:06.164Z,76.35
2018-12-01T07:39:34.392Z,76.22
2018-12-01T07:42:02.606Z,76.06
2018-12-01T07:44:30.768Z,75.96
2018-12-01T07:46:58.957Z,75.69
2018-12-01T07:49:27.225Z,75.66
2018-12-01T07:51:55.475Z,75.57
2018-12-01T07:54:23.662Z,75.81
2018-12-01T07:56:51.829Z,75.83
2018-12-01T07:59:20.049Z,75.67
2018-12-01T08:01:48.261Z,75.69
2018-12-01T08:04:16.514Z,75.83
2018-12-01T08:06:44.756Z,75.75
2018-12-01T08:09:12.989Z,76.09
2018-12-01T08:11:41.161Z,75.76
2018-12-01T08:14:09.381Z,75.59
2018-12-01T08:16:37.600Z,75.69
2018-12-01T08:19:05.920Z,75.64
2018-12-01T08:21:34.121Z,75.62
2018-12-01T08:24:02.338Z,75.56
2018-12-01T08:26:30.530Z,75.26
2018-12-01T08:28:58.715Z,74.58
2018-12-01T08:31:26.911Z,74.76
2018-12-01T08:33:55.113Z,74.27
2018-12-01T08:36:23.353Z,74.48
2018-12-01T08:38:51.567Z,74.29
2018-12-01T08:41:19.762Z,73.73
2018-12-01T08:43:47.952Z,73.27
2018-12-01T08:46:16.191Z,73.34
2018-12-01T08:48:44.418Z,72.54
2018-12-01T08:51:12.665Z,72.37
2018-12-01T08:53:40.879Z,71.97
2018-12-01T08:56:09.142Z,71.13
2018-12-01T08:58:37.332Z,70.87
2018-12-01T09:01:06.370Z,70.07
2018-12-01T09:03:34.573Z,69.98
2018-12-01T09:06:02.818Z,69.75
2018-12-01T09:08:31.033Z,68.92
2018-12-01T09:10:59.256Z,69.38
2018-12-01T09:13:27.501Z,69.54
2018-12-01T09:15:55.737Z,69.37
2018-12-01T09:18:23.973Z,69.40
2018-12-01T09:20:52.241Z,69.62
2018-12-01T09:23:20.465Z,70.06
2018-12-01T09:25:48.677Z,69.80
2018-12-01T09:28:16.930Z,69.90
2018-12-01T09:30:45.126Z,69.76
2018-12-01T09:33:13.361Z,69.84
2018-12-01T09:35:41.537Z,70.53
2018-12-01T09:38:09.725Z,70.27
2018-12-01T09:40:37.947Z,70.25
2018-12-01T09:43:06.645Z,69.80
2018-12-01T09:45:34.855Z,69.76
2018-12-01T09:48:03.049Z,69.89
2018-12-01T09:50:31.284Z,69.58
2018-12-01T09:52:59.469Z,69.61
2018-12-01T09:55:28.894Z,69.85
2018-12-01T09:57:57.748Z,69.99
2018-12-01T10:00:33.101Z,69.98
2018-12-01T10:03:02.583Z,69.97
2018-12-01T10:05:31.374Z,70.13
2018-12-01T10:07:59.558Z,70.21
2018-12-01T10:10:27.800Z,70.28
2018-12-01T10:12:56.812Z,68.97
2018-12-01T10:15:33.992Z,67.94
2018-12-01T10:18:02.182Z,67.55
2018-12-01T10:20:31.673Z,65.98
2018-12-01T10:23:00.886Z,65.79
2018-12-01T10:25:29.100Z,65.54
2018-12-01T10:27:57.395Z,64.71
2018-12-01T10:30:32.217Z,65.17
2018-12-01T10:33:00.412Z,65.50
2018-12-01T10:35:28.682Z,66.00
2018-12-01T10:37:58.314Z,66.09
2018-12-01T10:40:26.667Z,66.77
2018-12-01T10:42:54.991Z,66.68
2018-12-01T10:45:23.670Z,66.75
2018-12-01T10:47:52.057Z,66.67
2018-12-01T10:50:21.501Z,65.86
2018-12-01T10:52:50.999Z,66.44
2018-12-01T10:55:25.272Z,66.59
2018-12-01T10:57:56.866Z,66.53
2018-12-01T11:00:30.344Z,66.05
2018-12-01T11:05:11.830Z,66.38
2018-12-01T11:07:40.050Z,66.31
2018-12-01T11:10:09.118Z,66.32
2018-12-01T11:12:37.592Z,66.84
2018-12-01T11:15:07.488Z,66.70
2018-12-01T11:17:35.682Z,66.48
2018-12-01T11:20:05.174Z,66.50
2018-12-01T11:22:33.337Z,65.86
2018-12-01T11:25:01.621Z,65.11
2018-12-01T11:27:29.792Z,63.61
2018-12-01T11:29:58.042Z,61.49
2018-12-01T11:32:26.284Z,60.85
2018-12-01T11:34:54.481Z,59.42
2018-12-01T11:37:22.678Z,59.41
2018-12-01T11:39:50.869Z,59.41
2018-12-01T11:42:19.256Z,58.30
2018-12-01T11:44:47.488Z,58.93
2018-12-01T11:47:15.694Z,58.38
2018-12-01T11:49:43.874Z,58.04
2018-12-01T11:52:12.102Z,58.61
2018-12-01T11:54:40.705Z,57.91
2018-12-01T11:57:08.908Z,58.76
2018-12-01T11:59:37.110Z,58.81
2018-12-01T12:02:05.563Z,58.09
2018-12-01T12:04:33.743Z,57.66
2018-12-01T12:07:01.950Z,57.60
2018-12-01T12:09:30.266Z,57.08
2018-12-01T12:11:58.454Z,57.48
2018-12-01T12:14:26.637Z,56.91
2018-12-01T12:16:54.837Z,57.32
2018-12-01T12:19:23.042Z,57.29
2018-12-01T12:21:51.205Z,57.63
2018-12-01T12:24:19.403Z,57.51
2018-12-01T12:26:47.605Z,57.99
2018-12-01T12:29:15.836Z,57.15
2018-12-01T12:31:44.172Z,56.99
2018-12-01T12:34:12.348Z,57.44
2018-12-01T12:36:40.525Z,57.13
2018-12-01T12:39:08.706Z,56.98
2018-12-01T12:41:36.897Z,56.35
2018-12-01T12:44:05.658Z,56.69
2018-12-01T12:46:34.097Z,56.67
2018-12-01T12:49:02.068Z,56.52
2018-12-01T12:51:30.261Z,56.55
2018-12-01T12:53:58.435Z,56.66
2018-12-01T12:56:26.613Z,56.85
2018-12-01T12:58:54.797Z,56.71
2018-12-01T13:01:22.973Z,56.70
2018-12-01T13:03:51.202Z,56.35
2018-12-01T13:06:19.449Z,55.07
2018-12-01T13:08:47.732Z,55.07
2018-12-01T13:11:15.973Z,54.90
2018-12-01T13:13:44.321Z,55.35
2018-12-01T13:16:12.603Z,54.61
2018-12-01T13:18:41.218Z,54.95
2018-12-01T13:21:09.536Z,55.26
2018-12-01T13:23:37.847Z,54.96
2018-12-01T13:26:06.369Z,54.00
2018-12-01T13:28:34.874Z,54.98
2018-12-01T13:31:03.320Z,55.60
2018-12-01T13:33:31.822Z,54.27
2018-12-01T13:36:00.050Z,54.75
2018-12-01T13:38:28.502Z,55.12
2018-12-01T13:40:56.831Z,55.22
2018-12-01T13:43:25.209Z,54.57
2018-12-01T13:45:53.741Z,54.64
2018-12-01T13:48:22.277Z,54.48
2018-12-01T13:50:50.680Z,54.77
2018-12-01T13:53:18.918Z,54.91
2018-12-01T13:55:47.284Z,54.46
2018-12-01T13:58:15.824Z,54.90
2018-12-01T14:00:44.216Z,55.09
2018-12-01T14:03:12.507Z,54.97
2018-12-01T14:05:42.181Z,55.07
2018-12-01T14:08:10.396Z,55.06
2018-12-01T14:10:47.130Z,55.44
2018-12-01T14:13:15.593Z,55.92
2018-12-01T14:15:43.834Z,55.88
2018-12-01T14:18:13.384Z,55.78
2018-12-01T14:20:41.687Z,56.06
2018-12-01T14:23:10.013Z,56.57
2018-12-01T14:25:38.268Z,56.21
2018-12-01T14:28:09.048Z,56.42
2018-12-01T14:30:37.413Z,57.31
2018-12-01T14:33:06.244Z,56.58
2018-12-01T14:35:35.964Z,56.14
2018-12-01T14:38:08.010Z,57.13
2018-12-01T14:40:36.834Z,57.32
2018-12-01T14:43:05.010Z,57.14
2018-12-01T14:45:33.258Z,57.65
2018-12-01T14:48:01.475Z,57.44
2018-12-01T14:50:30.522Z,57.40
2018-12-01T14:52:58.733Z,58.11
2018-12-01T14:55:26.928Z,57.53
2018-12-01T14:57:55.113Z,57.41
2018-12-01T15:00:24.254Z,58.19
2018-12-01T15:02:53.442Z,57.74
2018-12-01T15:05:21.623Z,58.09
2018-12-01T15:07:50.282Z,57.92
2018-12-01T15:10:19.481Z,58.41
2018-12-01T15:12:47.772Z,58.79
2018-12-01T15:15:17.787Z,59.27
2018-12-01T15:17:45.327Z,59.65
2018-12-01T15:20:19.484Z,60.11
2018-12-01T15:22:50.780Z,60.40
2018-12-01T15:25:25.006Z,61.19
2018-12-01T15:27:53.222Z,61.38
2018-12-01T15:30:23.412Z,61.65
2018-12-01T15:32:58.973Z,62.92
2018-12-01T15:35:27.165Z,63.37
2018-12-01T15:37:55.390Z,63.25
2018-12-01T15:40:23.570Z,63.80
2018-12-01T15:42:51.949Z,64.49
2018-12-01T15:45:21.065Z,65.59
2018-12-01T15:47:49.286Z,65.32
2018-12-01T15:50:19.458Z,66.25
2018-12-01T15:52:50.255Z,66.77
2018-12-01T15:55:18.492Z,66.98
2018-12-01T15:57:46.712Z,67.55
2018-12-01T16:00:21.786Z,68.23
2018-12-01T16:02:50.178Z,68.88
2018-12-01T16:05:19.209Z,69.29
2018-12-01T16:07:48.367Z,70.02
2018-12-01T16:10:17.733Z,70.07
2018-12-01T16:12:47.240Z,70.18
2018-12-01T16:15:20.865Z,70.23
2018-12-01T16:17:49.048Z,70.53
2018-12-01T16:20:17.319Z,70.85
2018-12-01T16:22:45.601Z,71.13
2018-12-01T16:25:15.486Z,71.13
2018-12-01T16:27:44.862Z,71.73
2018-12-01T16:30:34.624Z,71.52
2018-12-01T16:33:05.066Z,72.08
2018-12-01T16:35:33.314Z,72.51
2018-12-01T16:38:01.566Z,72.53
2018-12-01T16:40:35.553Z,72.90
2018-12-01T16:43:06.229Z,72.96
2018-12-01T16:45:34.525Z,73.05
2018-12-01T16:48:02.744Z,72.87
2018-12-01T16:50:30.945Z,73.05
2018-12-01T16:52:59.145Z,72.87
2018-12-01T16:55:27.350Z,73.01
2018-12-01T16:57:55.579Z,73.48
2018-12-01T17:00:23.768Z,73.69
2018-12-01T17:02:53.640Z,73.74
2018-12-01T17:05:22.946Z,73.82
2018-12-01T17:07:51.284Z,74.15
2018-12-01T17:10:20.971Z,74.31
2018-12-01T17:12:50.612Z,74.34
2018-12-01T17:15:19.734Z,74.27
2018-12-01T17:17:48.042Z,73.80
2018-12-01T17:20:16.930Z,73.95
2018-12-01T17:23:01.954Z,74.27
2018-12-01T17:25:30.226Z,73.71
2018-12-01T17:27:59.355Z,73.65
2018-12-01T17:30:29.701Z,73.46
2018-12-01T17:32:59.117Z,73.09
2018-12-01T17:35:29.773Z,73.41
2018-12-01T17:38:00.325Z,73.28
2018-12-01T17:40:49.827Z,73.60
2018-12-01T17:43:20.265Z,73.75
2018-12-01T17:45:48.670Z,73.85
2018-12-01T17:48:16.887Z,73.61
2018-12-01T17:50:45.361Z,73.95
2018-12-01T17:53:13.550Z,74.15
2018-12-01T17:55:41.974Z,73.98
2018-12-01T17:58:10.905Z,74.51
2018-12-01T18:00:40.211Z,74.24
2018-12-01T18:03:08.981Z,74.20
2018-12-01T18:05:38.923Z,74.79
2018-12-01T18:08:11.661Z,74.85
2018-12-01T18:10:40.217Z,75.34
2018-12-01T18:13:09.039Z,74.95
2018-12-01T18:15:38.103Z,75.36
2018-12-01T18:18:06.758Z,75.74
2018-12-01T18:20:35.183Z,76.18
2018-12-01T18:23:03.775Z,76.52
2018-12-01T18:25:40.247Z,76.64
2018-12-01T18:28:09.711Z,76.52
2018-12-01T18:30:39.299Z,76.63
2018-12-01T18:33:17.923Z,76.71
2018-12-01T18:35:46.280Z,76.59
2018-12-01T18:38:14.495Z,76.25
2018-12-01T18:40:42.729Z,76.04
2018-12-01T18:43:11.229Z,76.16
2018-12-01T18:45:43.428Z,75.87
2018-12-01T18:48:11.683Z,75.30
2018-12-01T18:50:39.924Z,75.54
2018-12-01T18:53:09.381Z,75.62
2018-12-01T18:55:39.074Z,75.54
2018-12-01T18:58:08.826Z,75.65
2018-12-01T19:00:40.753Z,75.74
2018-12-01T19:03:10.109Z,75.79
2018-12-01T19:05:38.658Z,75.94
2018-12-01T19:08:07.221Z,75.92
2018-12-01T19:10:35.839Z,75.92
2018-12-01T19:13:04.233Z,75.90
2018-12-01T19:15:32.833Z,75.92
2018-12-01T19:18:01.484Z,75.83
2018-12-01T19:20:30.708Z,75.38
2018-12-01T19:22:59.390Z,75.25
2018-12-01T19:25:27.775Z,75.21
2018-12-01T19:27:56.741Z,74.90
2018-12-01T19:30:25.442Z,75.35
2018-12-01T19:32:57.853Z,75.06
2018-12-01T19:35:26.285Z,74.68
2018-12-01T19:37:55.256Z,74.46
2018-12-01T19:40:28.577Z,74.33
2018-12-01T19:42:53.308Z,74.34
2018-12-01T19:45:21.529Z,73.77
2018-12-01T19:47:49.765Z,74.19
2018-12-01T19:50:28.015Z,73.82
2018-12-01T19:52:56.268Z,73.74
2018-12-01T19:55:25.665Z,73.46
2018-12-01T19:57:54.093Z,73.46
2018-12-01T20:00:26.578Z,73.41
2018-12-01T20:02:55.461Z,73.20
2018-12-01T20:05:23.697Z,73.04
2018-12-01T20:07:52.588Z,72.97
2018-12-01T20:10:26.494Z,72.93
2018-12-01T20:12:57.353Z,73.26
2018-12-01T20:15:32.438Z,73.10
2018-12-01T20:18:02.589Z,73.01
2018-12-01T20:20:30.861Z,72.59
2018-12-01T20:22:59.126Z,73.33
2018-12-01T20:25:27.434Z,72.81
2018-12-01T20:27:55.842Z,72.92
2018-12-01T20:30:24.125Z,72.89
2018-12-01T20:32:52.474Z,73.15
2018-12-01T20:35:24.762Z,72.65
2018-12-01T20:37:58.510Z,72.75
2018-12-01T20:40:26.704Z,72.49
2018-12-01T20:42:54.955Z,72.27
2018-12-01T20:45:23.417Z,72.54
2018-12-01T20:47:52.044Z,72.03
2018-12-01T20:50:20.640Z,72.05
2018-12-01T20:52:49.444Z,71.75
2018-12-01T20:55:20.611Z,71.78
2018-12-01T20:57:53.775Z,71.61
2018-12-01T21:00:22.736Z,71.96
2018-12-01T21:02:51.250Z,71.73
2018-12-01T21:05:21.138Z,71.45
2018-12-01T21:07:49.985Z,71.35
2018-12-01T21:10:24.077Z,71.16
2018-12-01T21:12:52.649Z,70.83
2018-12-01T21:15:20.930Z,71.08
2018-12-01T21:17:49.385Z,70.85
2018-12-01T21:20:18.401Z,70.94
2018-12-01T21:22:49.049Z,70.38
2018-12-01T21:25:19.126Z,70.42
2018-12-01T21:27:47.501Z,70.25
2018-12-01T21:30:18.764Z,70.60
2018-12-01T21:35:39.487Z,70.69
2018-12-01T21:38:11.328Z,70.64
2018-12-01T21:40:40.274Z,70.25
2018-12-01T21:43:08.852Z,70.05
2018-12-01T21:45:37.075Z,70.23
2018-12-01T21:48:07.322Z,69.87
2018-12-01T21:50:35.594Z,70.08
2018-12-01T21:53:03.809Z,69.79
2018-12-01T21:55:32.036Z,69.63
2018-12-01T21:58:00.211Z,69.78
2018-12-01T22:00:30.338Z,69.80
2018-12-01T22:03:03.067Z,69.59
2018-12-01T22:05:39.272Z,69.87
2018-12-01T22:08:08.955Z,69.18
2018-12-01T22:10:37.172Z,69.73
2018-12-01T22:13:05.378Z,70.02
2018-12-01T22:15:33.566Z,69.78
2018-12-01T22:18:01.728Z,69.87
2018-12-01T22:20:30.155Z,69.74
2018-12-01T22:22:58.315Z,69.82
2018-12-01T22:25:26.477Z,69.60
2018-12-01T22:27:54.657Z,69.50
2018-12-01T22:30:23.466Z,69.58
2018-12-01T22:32:53.162Z,69.13
2018-12-01T22:35:22.548Z,69.17
2018-12-01T22:37:51.353Z,69.07
2018-12-01T22:40:30.802Z,69.09
2018-12-01T22:43:02.129Z,69.11
2018-12-01T22:45:30.433Z,68.97
2018-12-01T22:47:59.406Z,69.33
2018-12-01T22:50:27.581Z,69.57
2018-12-01T22:52:56.154Z,69.09
2018-12-01T22:55:25.466Z,69.42
2018-12-01T22:58:26.270Z,68.99
2018-12-01T23:00:56.665Z,69.12
2018-12-01T23:03:26.169Z,68.96
2018-12-01T23:05:54.365Z,69.15
2018-12-01T23:08:23.694Z,69.15
2018-12-01T23:10:51.894Z,68.90
2018-12-01T23:13:20.238Z,69.29
2018-12-01T23:15:48.551Z,68.89
2018-12-01T23:18:18.058Z,68.99
2018-12-01T23:20:47.257Z,69.06
2018-12-01T23:23:15.634Z,68.93
2018-12-01T23:25:43.842Z,68.88
2018-12-01T23:28:12.028Z,68.61
2018-12-01T23:30:41.904Z,68.66
2018-12-01T23:33:12.628Z,68.78
2018-12-01T23:35:41.106Z,68.64
2018-12-01T23:38:09.390Z,68.72
2018-12-01T23:40:38.877Z,68.61
2018-12-01T23:43:07.072Z,68.67
2018-12-01T23:45:35.655Z,68.82
2018-12-01T23:48:04.666Z,68.87
2018-12-01T23:50:31.985Z,68.86
2018-12-01T23:53:01.609Z,69.14
2018-12-01T23:55:29.777Z,69.35
2018-12-01T23:57:57.937Z,69.31
